createdAt,value
2022-10-11T00:00:20.185Z,3.30
2022-10-11T00:02:47.556Z,3.20
2022-10-11T00:05:15.867Z,3.05
2022-10-11T00:07:43.157Z,3.00
2022-10-11T00:10:11.075Z,2.97
2022-10-11T00:12:38.322Z,3.40
2022-10-11T00:15:07.180Z,2.95
2022-10-11T00:17:35.163Z,3.28
2022-10-11T00:20:02.343Z,3.10
2022-10-11T00:22:29.515Z,2.87
2022-10-11T00:24:58.874Z,2.97
2022-10-11T00:27:26.233Z,2.60
2022-10-11T00:29:53.633Z,2.70
2022-10-11T00:32:20.909Z,2.90
2022-10-11T00:34:48.200Z,2.73
2022-10-11T00:37:15.582Z,2.78
2022-10-11T00:39:42.837Z,2.75
2022-10-11T00:42:19.177Z,3.05
2022-10-11T00:44:47.657Z,2.67
2022-10-11T00:47:20.990Z,3.17
2022-10-11T00:50:01.439Z,3.05
2022-10-11T00:52:56.807Z,2.85
2022-10-11T00:55:27.098Z,2.70
2022-10-11T00:57:56.963Z,2.92
2022-10-11T01:00:24.454Z,2.83
2022-10-11T01:02:51.923Z,3.58
2022-10-11T01:05:35.283Z,2.88
2022-10-11T01:08:03.672Z,2.83
2022-10-11T01:10:31.200Z,3.13
2022-10-11T01:13:36.319Z,2.77
2022-10-11T01:16:16.955Z,2.58
2022-10-11T01:18:58.286Z,2.90
2022-10-11T01:21:28.488Z,2.65
2022-10-11T01:24:20.482Z,2.90
2022-10-11T01:27:26.129Z,3.17
2022-10-11T01:30:16.425Z,2.92
2022-10-11T01:33:09.780Z,2.72
2022-10-11T01:35:40.131Z,2.70
2022-10-11T01:38:30.493Z,2.70
2022-10-11T01:41:04.429Z,2.97
2022-10-11T01:43:32.870Z,2.33
2022-10-11T01:46:02.587Z,2.80
2022-10-11T01:48:30.136Z,2.60
2022-10-11T01:50:59.041Z,2.97
2022-10-11T01:53:47.754Z,2.43
2022-10-11T01:56:38.931Z,2.95
2022-10-11T01:59:24.099Z,2.78
2022-10-11T02:02:04.253Z,2.75
2022-10-11T02:05:10.022Z,2.97
2022-10-11T02:07:57.070Z,2.83
2022-10-11T02:10:34.461Z,2.88
2022-10-11T02:13:28.511Z,3.05
2022-10-11T02:15:57.550Z,2.80
2022-10-11T02:18:32.359Z,3.10
2022-10-11T02:21:02.518Z,3.50
2022-10-11T02:23:42.757Z,2.83
2022-10-11T02:26:12.554Z,3.35
2022-10-11T02:28:42.810Z,3.28
2022-10-11T02:31:11.674Z,2.78
2022-10-11T02:33:56.105Z,3.33
2022-10-11T02:36:43.833Z,3.28
2022-10-11T02:39:20.827Z,2.92
2022-10-11T02:41:51.960Z,3.80
2022-10-11T02:44:37.337Z,3.05
2022-10-11T02:47:05.218Z,3.30
2022-10-11T02:49:33.455Z,3.65
2022-10-11T02:52:00.796Z,3.30
2022-10-11T02:54:28.234Z,3.58
2022-10-11T02:56:56.172Z,3.10
2022-10-11T02:59:23.513Z,3.20
2022-10-11T03:01:51.121Z,3.90
2022-10-11T03:04:18.548Z,3.63
2022-10-11T03:06:46.430Z,3.50
2022-10-11T03:09:13.655Z,2.97
2022-10-11T03:11:40.970Z,3.27
2022-10-11T03:14:08.500Z,3.85
2022-10-11T03:16:36.314Z,3.83
2022-10-11T03:19:04.204Z,4.10
2022-10-11T03:21:32.074Z,4.13
2022-10-11T03:23:59.503Z,4.10
2022-10-11T03:26:28.220Z,4.07
2022-10-11T03:28:55.552Z,4.53
2022-10-11T03:31:23.980Z,4.30
2022-10-11T03:33:51.253Z,4.97
2022-10-11T03:36:18.824Z,5.00
2022-10-11T03:38:46.408Z,4.95
2022-10-11T03:41:13.851Z,5.35
2022-10-11T03:43:41.258Z,5.07
2022-10-11T03:46:09.684Z,4.35
2022-10-11T03:48:37.377Z,4.80
2022-10-11T03:51:04.762Z,4.68
2022-10-11T03:53:32.093Z,5.07
2022-10-11T03:55:59.342Z,5.32
2022-10-11T03:58:26.758Z,4.80
2022-10-11T04:00:54.363Z,5.30
2022-10-11T04:03:21.663Z,4.43
2022-10-11T04:05:49.017Z,4.78
2022-10-11T04:08:16.366Z,4.75
2022-10-11T04:10:43.697Z,4.35
2022-10-11T04:13:11.993Z,4.80
2022-10-11T04:15:39.408Z,4.90
2022-10-11T04:18:07.383Z,4.57
2022-10-11T04:20:35.266Z,4.63
2022-10-11T04:23:02.691Z,5.07
2022-10-11T04:25:30.034Z,5.03
2022-10-11T04:27:57.195Z,5.18
2022-10-11T04:30:24.915Z,5.22
2022-10-11T04:32:52.095Z,5.28
2022-10-11T04:35:19.496Z,5.13
2022-10-11T04:37:46.749Z,4.80
2022-10-11T04:40:14.331Z,4.70
2022-10-11T04:42:41.772Z,4.90
2022-10-11T04:45:09.705Z,5.10
2022-10-11T04:47:37.006Z,4.55
2022-10-11T04:50:04.819Z,4.97
2022-10-11T04:52:32.092Z,5.30
2022-10-11T04:54:59.318Z,4.40
2022-10-11T04:57:26.700Z,4.60
2022-10-11T04:59:54.078Z,5.43
2022-10-11T05:02:21.440Z,5.10
2022-10-11T05:04:48.731Z,4.75
2022-10-11T05:07:15.997Z,5.15
2022-10-11T05:09:43.267Z,5.00
2022-10-11T05:12:10.893Z,4.90
2022-10-11T05:14:38.362Z,5.00
2022-10-11T05:17:05.875Z,5.97
2022-10-11T05:19:33.118Z,5.28
2022-10-11T05:22:00.297Z,5.22
2022-10-11T05:24:27.470Z,5.65
2022-10-11T05:26:54.746Z,5.80
2022-10-11T05:29:22.930Z,5.05
2022-10-11T05:31:50.160Z,5.22
2022-10-11T05:34:17.643Z,5.53
2022-10-11T05:36:44.973Z,5.53
2022-10-11T05:39:12.218Z,6.47
2022-10-11T05:41:39.566Z,5.22
2022-10-11T05:44:09.135Z,5.57
2022-10-11T05:46:36.613Z,5.30
2022-10-11T05:49:03.959Z,5.22
2022-10-11T05:51:31.361Z,4.37
2022-10-11T05:53:58.662Z,4.95
2022-10-11T05:56:26.891Z,5.15
2022-10-11T05:58:56.575Z,5.47
2022-10-11T06:01:28.328Z,5.80
2022-10-11T06:03:56.174Z,5.20
2022-10-11T06:06:23.837Z,5.82
2022-10-11T06:08:51.286Z,5.25
2022-10-11T06:11:21.867Z,5.18
2022-10-11T06:13:49.254Z,5.05
2022-10-11T06:16:16.674Z,5.53
2022-10-11T06:18:44.321Z,5.22
2022-10-11T06:21:11.890Z,6.28
2022-10-11T06:23:39.503Z,5.10
2022-10-11T06:26:09.339Z,4.97
2022-10-11T06:28:37.752Z,5.37
2022-10-11T06:31:05.915Z,5.38
2022-10-11T06:33:33.858Z,5.43
2022-10-11T06:36:06.309Z,5.03
2022-10-11T06:38:34.034Z,5.90
2022-10-11T06:41:16.296Z,5.47
2022-10-11T06:43:43.759Z,4.93
2022-10-11T06:46:11.711Z,5.95
2022-10-11T06:48:44.378Z,5.40
2022-10-11T06:51:14.355Z,6.30
2022-10-11T06:53:42.560Z,5.53
2022-10-11T06:56:13.313Z,5.47
2022-10-11T06:58:40.993Z,5.22
2022-10-11T07:01:11.531Z,5.22
2022-10-11T07:03:41.636Z,5.22
2022-10-11T07:06:14.372Z,5.63
2022-10-11T07:08:41.948Z,5.47
2022-10-11T07:11:15.210Z,4.93
2022-10-11T07:13:42.810Z,6.13
2022-10-11T07:16:12.778Z,5.28
2022-10-11T07:18:40.048Z,5.80
2022-10-11T07:21:10.849Z,5.97
2022-10-11T07:23:38.396Z,6.20
2022-10-11T07:26:07.554Z,5.82
2022-10-11T07:28:36.069Z,5.22
2022-10-11T07:31:14.403Z,5.53
2022-10-11T07:33:41.968Z,5.47
2022-10-11T07:36:10.720Z,5.20
2022-10-11T07:38:46.436Z,5.18
2022-10-11T07:41:14.857Z,4.93
2022-10-11T07:43:43.776Z,4.80
2022-10-11T07:46:11.485Z,5.43
2022-10-11T07:48:39.466Z,5.75
2022-10-11T07:51:19.438Z,5.10
2022-10-11T07:53:49.486Z,5.35
2022-10-11T07:56:19.158Z,5.27
2022-10-11T07:58:54.262Z,5.25
2022-10-11T08:01:22.030Z,5.28
2022-10-11T08:03:50.154Z,5.28
2022-10-11T08:06:21.482Z,5.38
2022-10-11T08:08:48.989Z,5.20
2022-10-11T08:11:31.048Z,5.20
2022-10-11T08:13:59.224Z,5.63
2022-10-11T08:16:27.142Z,4.75
2022-10-11T08:18:57.203Z,5.18
2022-10-11T08:21:26.988Z,5.30
2022-10-11T08:23:54.842Z,4.95
2022-10-11T08:26:22.607Z,5.60
2022-10-11T08:28:49.955Z,5.40
2022-10-11T08:31:17.598Z,4.95
2022-10-11T08:33:44.923Z,4.63
2022-10-11T08:36:13.394Z,4.78
2022-10-11T08:38:41.219Z,4.53
2022-10-11T08:41:42.485Z,4.35
2022-10-11T08:44:27.648Z,4.47
2022-10-11T08:47:04.690Z,4.93
2022-10-11T08:49:33.957Z,4.40
2022-10-11T08:52:04.912Z,4.68
2022-10-11T08:54:36.374Z,4.22
2022-10-11T08:57:06.509Z,4.97
2022-10-11T08:59:47.030Z,4.47
2022-10-11T09:03:09.032Z,3.90
2022-10-11T09:05:51.097Z,4.30
2022-10-11T09:08:41.252Z,4.22
2022-10-11T09:11:08.499Z,4.15
2022-10-11T09:14:05.874Z,3.93
2022-10-11T09:17:06.650Z,4.55
2022-10-11T09:20:04.504Z,4.07
2022-10-11T09:23:03.034Z,4.30
2022-10-11T09:25:35.138Z,4.03
2022-10-11T09:28:13.584Z,4.10
2022-10-11T09:30:52.980Z,4.43
2022-10-11T09:33:44.286Z,3.50
2022-10-11T09:36:21.864Z,3.83
2022-10-11T09:39:04.272Z,4.72
2022-10-11T09:41:55.636Z,4.30
2022-10-11T09:44:25.804Z,4.32
2022-10-11T09:46:57.529Z,4.60
2022-10-11T09:49:33.641Z,4.20
2022-10-11T09:52:03.300Z,4.43
2022-10-11T09:54:45.057Z,4.10
2022-10-11T09:57:34.571Z,4.35
2022-10-11T10:00:20.578Z,3.90
2022-10-11T10:02:49.852Z,4.20
2022-10-11T10:05:27.101Z,4.28
2022-10-11T10:08:11.588Z,3.80
2022-10-11T10:10:57.122Z,4.15
2022-10-11T10:13:50.285Z,3.65
2022-10-11T10:16:34.801Z,3.75
2022-10-11T10:19:05.163Z,3.22
2022-10-11T10:21:36.925Z,3.53
2022-10-11T10:24:19.798Z,3.45
2022-10-11T10:27:23.479Z,3.75
2022-10-11T10:30:08.970Z,3.50
2022-10-11T10:40:41.138Z,3.20
2022-10-11T10:43:17.960Z,4.30
2022-10-11T10:46:21.754Z,3.53
2022-10-11T10:52:13.142Z,3.33
2022-10-11T10:54:44.416Z,3.72
2022-10-11T10:57:15.349Z,3.70
2022-10-11T10:59:53.844Z,5.10
2022-10-11T11:02:39.717Z,3.78
2022-10-11T11:05:40.219Z,4.00
2022-10-11T11:08:16.095Z,3.40
2022-10-11T11:10:50.436Z,3.47
2022-10-11T11:13:24.001Z,3.53
2022-10-11T11:16:09.645Z,3.65
2022-10-11T11:18:50.204Z,3.07
2022-10-11T11:21:41.662Z,3.13
2022-10-11T11:24:17.853Z,3.30
2022-10-11T11:27:06.630Z,3.60
2022-10-11T11:30:10.133Z,3.40
2022-10-11T11:32:45.673Z,3.33
2022-10-11T11:35:31.683Z,4.15
2022-10-11T11:38:06.473Z,5.22
2022-10-11T11:40:42.055Z,3.53
2022-10-11T11:43:38.727Z,3.88
2022-10-11T11:46:23.747Z,3.23
2022-10-11T11:48:54.073Z,3.53
2022-10-11T11:51:45.594Z,3.03
2022-10-11T11:54:15.639Z,3.67
2022-10-11T11:56:56.467Z,4.03
2022-10-11T11:59:37.484Z,3.90
2022-10-11T12:02:41.808Z,3.53
2022-10-11T12:05:11.812Z,3.85
2022-10-11T12:08:06.404Z,3.63
2022-10-11T12:10:40.487Z,3.40
2022-10-11T12:13:46.906Z,3.67
2022-10-11T12:16:17.016Z,3.00
2022-10-11T12:19:01.460Z,3.65
2022-10-11T12:21:35.570Z,4.05
2022-10-11T12:24:21.242Z,3.97
2022-10-11T12:26:50.295Z,3.63
2022-10-11T12:29:18.391Z,3.63
2022-10-11T12:31:48.913Z,3.38
2022-10-11T12:34:36.159Z,3.70
2022-10-11T12:37:18.961Z,3.42
2022-10-11T12:39:52.001Z,3.90
2022-10-11T12:42:34.367Z,3.63
2022-10-11T12:45:13.858Z,3.85
2022-10-11T12:47:52.810Z,3.80
2022-10-11T12:50:26.809Z,3.67
2022-10-11T12:53:07.148Z,3.80
2022-10-11T12:56:03.752Z,3.70
2022-10-11T12:58:41.657Z,3.80
2022-10-11T13:01:14.761Z,4.32
2022-10-11T13:03:53.290Z,3.65
2022-10-11T13:06:27.184Z,3.90
2022-10-11T13:09:07.473Z,3.70
2022-10-11T13:11:39.057Z,3.42
2022-10-11T13:14:16.966Z,3.72
2022-10-11T13:17:05.740Z,3.53
2022-10-11T13:19:36.695Z,3.90
2022-10-11T13:22:15.571Z,3.60
2022-10-11T13:24:43.950Z,3.67
2022-10-11T13:27:20.589Z,3.05
2022-10-11T13:29:49.214Z,3.88
2022-10-11T13:32:24.083Z,3.80
2022-10-11T13:35:30.379Z,3.42
2022-10-11T13:37:58.245Z,4.03
2022-10-11T13:40:26.076Z,4.03
2022-10-11T13:42:54.219Z,3.33
2022-10-11T13:45:27.746Z,4.40
2022-10-11T13:47:55.782Z,2.90
2022-10-11T13:50:32.406Z,3.30
2022-10-11T13:53:09.908Z,3.83
2022-10-11T13:55:50.901Z,3.22
2022-10-11T13:58:44.617Z,3.70
2022-10-11T14:01:27.289Z,3.40
2022-10-11T14:04:04.113Z,3.03
2022-10-11T14:07:00.558Z,3.95
2022-10-11T14:09:37.037Z,3.58
2022-10-11T14:12:26.987Z,3.67
2022-10-11T14:14:54.551Z,4.03
2022-10-11T14:17:33.555Z,3.30
2022-10-11T14:20:30.799Z,3.47
2022-10-11T14:23:01.902Z,3.40
2022-10-11T14:25:29.572Z,3.60
2022-10-11T14:27:57.817Z,3.35
2022-10-11T14:30:27.799Z,3.78
2022-10-11T14:32:58.094Z,3.65
2022-10-11T14:35:31.134Z,3.65
2022-10-11T14:37:58.860Z,3.90
2022-10-11T14:40:29.204Z,4.13
2022-10-11T14:42:57.341Z,4.03
2022-10-11T14:45:25.401Z,4.05
2022-10-11T14:47:52.930Z,4.30
2022-10-11T14:50:33.270Z,4.73
2022-10-11T14:53:01.646Z,4.50
2022-10-11T14:55:31.374Z,5.40
2022-10-11T14:57:59.365Z,4.93
2022-10-11T15:00:29.256Z,4.72
2022-10-11T15:02:57.611Z,4.77
2022-10-11T15:05:32.684Z,5.05
2022-10-11T15:08:02.333Z,5.10
2022-10-11T15:10:35.169Z,4.85
2022-10-11T15:13:03.477Z,5.20
2022-10-11T15:15:33.180Z,4.73
2022-10-11T15:18:02.174Z,4.97
2022-10-11T15:20:39.221Z,4.60
2022-10-11T15:23:09.738Z,4.63
2022-10-11T15:25:39.108Z,4.45
2022-10-11T15:28:09.662Z,4.33
2022-10-11T15:30:41.362Z,5.13
2022-10-11T15:33:09.522Z,5.07
2022-10-11T15:35:36.875Z,5.20
2022-10-11T15:38:04.449Z,4.80
2022-10-11T15:40:34.519Z,4.57
2022-10-11T15:43:02.520Z,4.57
2022-10-11T15:45:30.622Z,4.43
2022-10-11T15:47:58.461Z,4.57
2022-10-11T15:50:34.846Z,4.75
2022-10-11T15:53:10.505Z,5.10
2022-10-11T15:55:40.716Z,5.10
2022-10-11T15:58:14.895Z,4.90
2022-10-11T16:00:44.195Z,4.47
2022-10-11T16:03:13.384Z,4.53
2022-10-11T16:05:41.641Z,4.80
2022-10-11T16:08:10.314Z,4.65
2022-10-11T16:10:38.407Z,4.90
2022-10-11T16:13:06.358Z,4.55
2022-10-11T16:15:35.344Z,4.50
2022-10-11T16:18:35.060Z,4.30
2022-10-11T16:21:10.008Z,4.70
2022-10-11T16:24:03.026Z,4.75
2022-10-11T16:26:30.918Z,5.10
2022-10-11T16:28:58.490Z,4.88
2022-10-11T16:31:25.846Z,5.07
2022-10-11T16:33:53.554Z,5.05
2022-10-11T16:36:32.274Z,5.00
2022-10-11T16:39:01.847Z,5.13
2022-10-11T16:41:29.289Z,5.80
2022-10-11T16:43:56.838Z,5.33
2022-10-11T16:46:24.265Z,5.60
2022-10-11T16:48:54.986Z,5.25
2022-10-11T16:51:24.536Z,4.32
2022-10-11T16:53:52.847Z,5.00
2022-10-11T16:56:22.978Z,4.17
2022-10-11T16:58:52.713Z,4.70
2022-10-11T17:01:20.382Z,4.60
2022-10-11T17:03:49.790Z,4.60
2022-10-11T17:06:17.289Z,4.45
2022-10-11T17:08:44.737Z,5.00
2022-10-11T17:11:12.039Z,4.40
2022-10-11T17:13:39.273Z,4.30
2022-10-11T17:16:07.418Z,4.40
2022-10-11T17:18:35.192Z,4.40
2022-10-11T17:21:06.969Z,4.73
2022-10-11T17:23:35.803Z,4.43
2022-10-11T17:26:10.854Z,4.53
2022-10-11T17:28:38.512Z,4.82
2022-10-11T17:31:08.323Z,4.63
2022-10-11T17:33:36.331Z,4.23
2022-10-11T17:36:14.186Z,5.25
2022-10-11T17:38:41.690Z,4.20
2022-10-11T17:41:09.632Z,4.70
2022-10-11T17:43:37.029Z,4.78
2022-10-11T17:46:06.586Z,4.97
2022-10-11T17:48:36.930Z,4.80
2022-10-11T17:51:08.561Z,4.45
2022-10-11T17:53:36.580Z,4.80
2022-10-11T17:56:09.389Z,5.05
2022-10-11T17:58:37.158Z,4.90
2022-10-11T18:01:06.999Z,4.97
2022-10-11T18:03:34.659Z,5.13
2022-10-11T18:06:11.741Z,5.63
2022-10-11T18:08:40.949Z,5.07
2022-10-11T18:11:14.024Z,5.03
2022-10-11T18:13:46.343Z,4.93
2022-10-11T18:16:18.239Z,5.22
2022-10-11T18:18:46.043Z,5.15
2022-10-11T18:21:13.583Z,4.95
2022-10-11T18:23:41.399Z,4.80
2022-10-11T18:26:13.471Z,4.20
2022-10-11T18:28:41.313Z,4.32
2022-10-11T18:31:13.783Z,3.70
2022-10-11T18:33:42.661Z,3.70
2022-10-11T18:36:17.233Z,4.10
2022-10-11T18:39:14.350Z,4.20
2022-10-11T18:41:44.953Z,3.88
2022-10-11T18:44:15.541Z,3.60
2022-10-11T18:46:44.316Z,3.55
2022-10-11T18:49:12.957Z,3.53
2022-10-11T18:51:42.601Z,3.70
2022-10-11T18:54:15.185Z,3.80
2022-10-11T18:56:48.486Z,3.85
2022-10-11T18:59:15.997Z,3.65
2022-10-11T19:01:45.022Z,4.03
2022-10-11T19:04:16.989Z,4.00
2022-10-11T19:06:49.573Z,3.80
2022-10-11T19:09:25.076Z,3.60
2022-10-11T19:11:57.431Z,4.05
2022-10-11T19:14:29.235Z,3.73
2022-10-11T19:16:57.198Z,4.00
2022-10-11T19:19:29.035Z,3.65
2022-10-11T19:21:56.323Z,4.43
2022-10-11T19:24:26.798Z,3.70
2022-10-11T19:26:57.362Z,3.80
2022-10-11T19:29:30.859Z,4.43
2022-10-11T19:32:02.086Z,3.80
2022-10-11T19:34:31.600Z,4.10
2022-10-11T19:37:01.344Z,3.60
2022-10-11T19:39:31.145Z,4.30
2022-10-11T19:42:04.685Z,4.18
2022-10-11T19:44:35.721Z,3.97
2022-10-11T19:47:10.695Z,3.97
2022-10-11T19:49:41.412Z,3.65
2022-10-11T19:52:10.625Z,3.63
2022-10-11T19:54:40.162Z,4.13
2022-10-11T19:57:09.639Z,4.00
2022-10-11T19:59:40.114Z,3.72
2022-10-11T20:02:07.370Z,3.30
2022-10-11T20:04:51.958Z,3.50
2022-10-11T20:07:22.096Z,3.92
2022-10-11T20:09:49.434Z,4.15
2022-10-11T20:12:18.722Z,3.85
2022-10-11T20:14:46.814Z,3.95
2022-10-11T20:17:14.744Z,3.60
2022-10-11T20:19:42.165Z,4.00
2022-10-11T20:22:09.678Z,3.65
2022-10-11T20:24:36.898Z,3.70
2022-10-11T20:27:07.053Z,3.70
2022-10-11T20:29:35.337Z,4.20
2022-10-11T20:32:02.817Z,3.85
2022-10-11T20:34:30.700Z,3.92
2022-10-11T20:36:58.539Z,4.35
2022-10-11T20:39:25.883Z,3.80
2022-10-11T20:41:53.280Z,3.90
2022-10-11T20:44:20.532Z,4.10
2022-10-11T20:46:48.064Z,3.65
2022-10-11T20:49:15.913Z,4.00
2022-10-11T20:51:43.363Z,3.65
2022-10-11T20:54:11.353Z,4.17
2022-10-11T20:56:39.210Z,3.65
2022-10-11T20:59:07.510Z,3.85
2022-10-11T21:01:38.049Z,3.72
2022-10-11T21:04:06.947Z,3.58
2022-10-11T21:06:34.767Z,3.93
2022-10-11T21:09:02.685Z,3.88
2022-10-11T21:11:32.184Z,3.90
2022-10-11T21:14:01.905Z,3.92
2022-10-11T21:16:29.735Z,3.63
2022-10-11T21:18:59.554Z,3.37
2022-10-11T21:21:29.915Z,3.55
2022-10-11T21:24:02.317Z,3.35
2022-10-11T21:26:33.306Z,3.72
2022-10-11T21:29:00.606Z,3.90
2022-10-11T21:31:32.902Z,4.10
2022-10-11T21:34:01.506Z,3.83
2022-10-11T21:36:28.818Z,4.10
2022-10-11T21:38:57.256Z,4.35
2022-10-11T21:41:26.579Z,4.05
2022-10-11T21:43:55.160Z,3.83
2022-10-11T21:46:41.986Z,3.80
2022-10-11T21:49:15.288Z,3.13
2022-10-11T21:51:44.222Z,3.03
2022-10-11T21:54:11.490Z,3.80
2022-10-11T21:56:47.844Z,3.90
2022-10-11T21:59:15.285Z,3.42
2022-10-11T22:01:43.789Z,3.67
2022-10-11T22:04:12.267Z,3.55
2022-10-11T22:06:40.048Z,3.50
2022-10-11T22:09:08.704Z,3.80
2022-10-11T22:11:36.843Z,3.42
2022-10-11T22:14:04.341Z,3.80
2022-10-11T22:16:34.355Z,3.90
2022-10-11T22:19:01.729Z,3.70
2022-10-11T22:21:29.028Z,3.60
2022-10-11T22:23:56.750Z,3.88
2022-10-11T22:26:30.077Z,4.07
2022-10-11T22:28:58.673Z,4.20
2022-10-11T22:31:28.703Z,3.55
2022-10-11T22:34:00.445Z,3.97
2022-10-11T22:36:30.721Z,3.85
2022-10-11T22:38:58.805Z,3.83
2022-10-11T22:41:26.214Z,3.45
2022-10-11T22:43:53.632Z,3.60
2022-10-11T22:46:20.947Z,3.60
2022-10-11T22:48:48.539Z,3.65
2022-10-11T22:51:15.915Z,3.17
2022-10-11T22:53:43.250Z,3.38
2022-10-11T22:56:11.471Z,4.10
2022-10-11T22:58:39.004Z,4.00
2022-10-11T23:01:08.502Z,3.92
2022-10-11T23:03:36.497Z,3.78
2022-10-11T23:06:04.599Z,4.30
2022-10-11T23:08:32.215Z,4.03
2022-10-11T23:11:07.698Z,5.03
2022-10-11T23:13:35.801Z,4.88
2022-10-11T23:16:11.307Z,5.40
2022-10-11T23:18:39.878Z,4.75
2022-10-11T23:21:08.256Z,4.60
2022-10-11T23:23:35.982Z,4.90
2022-10-11T23:26:11.260Z,4.75
2022-10-11T23:28:38.764Z,4.50
2022-10-11T23:31:10.581Z,4.35
2022-10-11T23:33:40.017Z,4.53
2022-10-11T23:36:20.812Z,4.17
2022-10-11T23:38:58.942Z,4.30
2022-10-11T23:41:29.199Z,4.00
2022-10-11T23:43:57.221Z,3.45
2022-10-11T23:46:25.787Z,3.88
2022-10-11T23:48:53.092Z,4.13
2022-10-11T23:51:20.478Z,3.88
2022-10-11T23:53:47.760Z,4.38
2022-10-11T23:56:15.188Z,4.05
2022-10-11T23:58:42.572Z,3.97
